Terminal Aerodrome Forecast
Issued by NWS Brownsville, TX

Current Version | Previous Version | Text Only | Print | Product List | Glossary On
Versions: 1 2 3 4 5 6 7 8 9 10 11 12 13 14 15
411
FTUS44 KBRO 181128
TAFHRL
TAF
KHRL 181128Z 1812/1912 16009KT P6SM SKC
     FM181500 18016G24KT P6SM SCT250
     FM182100 20010KT P6SM SCT040
     FM190000 02010KT P6SM BKN030
     FM190400 36016G24KT P6SM BKN050=

USA.gov is the U.S. government's official web portal to all federal, state and local government web resources and services.